createdAt,value
2022-09-15T00:00:27.914Z,16.88
2022-09-15T00:02:54.344Z,16.84
2022-09-15T00:05:20.854Z,16.84
2022-09-15T00:07:47.619Z,16.86
2022-09-15T00:10:14.094Z,16.90
2022-09-15T00:12:40.536Z,16.91
2022-09-15T00:15:07.790Z,16.85
2022-09-15T00:17:34.251Z,16.83
2022-09-15T00:20:00.751Z,16.84
2022-09-15T00:22:28.087Z,16.83
2022-09-15T00:24:54.474Z,16.81
2022-09-15T00:27:20.897Z,16.78
2022-09-15T00:29:47.362Z,16.80
2022-09-15T00:32:14.817Z,16.79
2022-09-15T00:34:41.309Z,16.83
2022-09-15T00:37:07.726Z,16.81
2022-09-15T00:39:34.171Z,16.82
2022-09-15T00:42:00.563Z,16.82
2022-09-15T00:44:36.104Z,16.85
2022-09-15T00:47:18.875Z,16.83
2022-09-15T00:49:49.075Z,16.82
2022-09-15T00:52:42.901Z,16.79
2022-09-15T00:55:15.909Z,16.79
2022-09-15T00:57:49.695Z,16.79
2022-09-15T01:00:20.112Z,16.78
2022-09-15T01:02:48.315Z,16.83
2022-09-15T01:05:22.864Z,16.81
2022-09-15T01:07:56.304Z,16.81
2022-09-15T01:10:29.207Z,16.80
2022-09-15T01:13:02.784Z,16.79
2022-09-15T01:16:07.989Z,16.80
2022-09-15T01:19:07.167Z,16.82
2022-09-15T01:21:47.474Z,16.84
2022-09-15T01:24:33.901Z,16.77
2022-09-15T01:27:40.420Z,16.77
2022-09-15T01:30:12.346Z,16.72
2022-09-15T01:33:04.125Z,16.77
2022-09-15T01:35:33.806Z,16.77
2022-09-15T01:38:22.915Z,16.79
2022-09-15T01:40:59.974Z,16.78
2022-09-15T01:43:29.708Z,16.78
2022-09-15T01:45:57.565Z,16.69
2022-09-15T01:48:27.339Z,16.69
2022-09-15T01:50:58.907Z,16.65
2022-09-15T01:53:26.502Z,16.66
2022-09-15T01:56:02.684Z,16.69
2022-09-15T01:58:29.161Z,16.68
2022-09-15T02:01:19.992Z,16.70
2022-09-15T02:03:55.366Z,16.69
2022-09-15T02:06:39.661Z,16.68
2022-09-15T02:09:13.695Z,16.69
2022-09-15T02:12:19.896Z,16.70
2022-09-15T02:14:57.395Z,16.66
2022-09-15T02:17:29.097Z,16.66
2022-09-15T02:20:15.502Z,16.67
2022-09-15T02:22:48.736Z,16.67
2022-09-15T02:25:22.725Z,16.67
2022-09-15T02:27:53.757Z,16.63
2022-09-15T02:30:21.372Z,16.61
2022-09-15T02:32:56.046Z,16.63
2022-09-15T02:35:25.911Z,16.61
2022-09-15T02:37:53.181Z,16.65
2022-09-15T02:40:19.987Z,16.71
2022-09-15T02:42:55.854Z,16.66
2022-09-15T02:45:24.101Z,16.62
2022-09-15T02:47:50.821Z,16.70
2022-09-15T02:50:18.750Z,16.65
2022-09-15T02:52:45.124Z,16.64
2022-09-15T02:55:11.852Z,16.51
2022-09-15T02:57:38.381Z,16.42
2022-09-15T03:00:12.978Z,16.27
2022-09-15T03:02:44.633Z,16.23
2022-09-15T03:05:12.804Z,16.22
2022-09-15T03:07:39.271Z,16.17
2022-09-15T03:10:07.745Z,16.12
2022-09-15T03:12:42.262Z,16.05
2022-09-15T03:15:11.053Z,16.04
2022-09-15T03:17:39.351Z,16.05
2022-09-15T03:20:07.893Z,15.99
2022-09-15T03:22:34.982Z,15.95
2022-09-15T03:25:01.486Z,15.97
2022-09-15T03:27:27.909Z,15.95
2022-09-15T03:29:54.285Z,15.96
2022-09-15T03:32:20.730Z,15.92
2022-09-15T03:34:47.156Z,15.89
2022-09-15T03:37:13.654Z,15.82
2022-09-15T03:39:40.020Z,15.80
2022-09-15T03:42:06.432Z,15.83
2022-09-15T03:44:33.066Z,15.83
2022-09-15T03:46:59.479Z,15.80
2022-09-15T03:49:25.915Z,15.85
2022-09-15T03:51:52.331Z,15.83
2022-09-15T03:54:19.528Z,15.87
2022-09-15T03:56:49.054Z,15.84
2022-09-15T03:59:16.366Z,15.88
2022-09-15T04:01:43.418Z,15.86
2022-09-15T04:04:10.536Z,15.94
2022-09-15T04:06:37.554Z,15.96
2022-09-15T04:09:05.063Z,15.96
2022-09-15T04:11:31.955Z,15.97
2022-09-15T04:13:58.370Z,15.95
2022-09-15T04:16:27.748Z,15.92
2022-09-15T04:18:55.241Z,15.83
2022-09-15T04:21:24.353Z,15.80
2022-09-15T04:23:51.890Z,15.62
2022-09-15T04:26:31.295Z,15.51
2022-09-15T04:29:03.007Z,15.58
2022-09-15T04:31:30.684Z,15.54
2022-09-15T04:33:57.229Z,15.47
2022-09-15T04:36:26.377Z,15.36
2022-09-15T04:38:53.245Z,15.32
2022-09-15T04:41:20.809Z,15.29
2022-09-15T04:43:47.260Z,15.26
2022-09-15T04:46:15.215Z,15.24
2022-09-15T04:48:42.346Z,15.25
2022-09-15T04:51:11.778Z,15.20
2022-09-15T04:53:38.272Z,15.12
2022-09-15T04:56:07.124Z,15.14
2022-09-15T04:58:38.813Z,15.08
2022-09-15T05:01:20.145Z,15.05
2022-09-15T05:03:47.547Z,14.97
2022-09-15T05:06:16.449Z,14.91
2022-09-15T05:08:43.082Z,14.93
2022-09-15T05:11:12.085Z,14.93
2022-09-15T05:13:39.732Z,14.92
2022-09-15T05:16:13.308Z,14.85
2022-09-15T05:18:41.167Z,14.72
2022-09-15T05:21:09.881Z,14.66
2022-09-15T05:23:37.472Z,14.65
2022-09-15T05:26:11.703Z,14.57
2022-09-15T05:28:38.761Z,14.60
2022-09-15T05:31:15.309Z,14.61
2022-09-15T05:33:41.722Z,14.63
2022-09-15T05:36:08.194Z,14.65
2022-09-15T05:38:34.587Z,14.64
2022-09-15T05:41:07.207Z,14.62
2022-09-15T05:43:35.613Z,14.58
2022-09-15T05:46:03.123Z,14.59
2022-09-15T05:48:30.207Z,14.60
2022-09-15T05:50:57.463Z,14.64
2022-09-15T05:53:24.953Z,14.69
2022-09-15T05:55:56.071Z,14.78
2022-09-15T05:58:23.364Z,14.89
2022-09-15T06:00:50.722Z,14.92
2022-09-15T06:03:17.373Z,14.95
2022-09-15T06:05:43.917Z,14.96
2022-09-15T06:08:10.945Z,15.08
2022-09-15T06:10:37.436Z,15.29
2022-09-15T06:13:04.124Z,15.23
2022-09-15T06:15:31.131Z,15.23
2022-09-15T06:17:57.745Z,15.24
2022-09-15T06:20:24.705Z,15.25
2022-09-15T06:22:51.257Z,15.47
2022-09-15T06:25:17.869Z,15.85
2022-09-15T06:27:44.425Z,16.30
2022-09-15T06:30:11.567Z,16.84
2022-09-15T06:32:38.198Z,17.67
2022-09-15T06:35:07.107Z,18.16
2022-09-15T06:37:34.582Z,19.08
2022-09-15T06:40:01.922Z,19.43
2022-09-15T06:42:28.411Z,20.30
2022-09-15T06:44:54.858Z,21.26
2022-09-15T06:47:21.275Z,21.33
2022-09-15T06:49:47.956Z,21.55
2022-09-15T06:52:14.373Z,21.72
2022-09-15T06:54:40.839Z,22.23
2022-09-15T06:57:07.276Z,22.38
2022-09-15T06:59:33.673Z,22.47
2022-09-15T07:02:04.202Z,22.39
2022-09-15T07:04:31.742Z,22.44
2022-09-15T07:06:58.102Z,22.16
2022-09-15T07:09:24.550Z,22.24
2022-09-15T07:11:51.147Z,22.14
2022-09-15T07:14:17.629Z,21.79
2022-09-15T07:16:44.145Z,21.22
2022-09-15T07:19:10.791Z,20.97
2022-09-15T07:21:37.692Z,20.93
2022-09-15T07:24:07.227Z,20.78
2022-09-15T07:26:34.627Z,20.72
2022-09-15T07:29:03.730Z,20.91
2022-09-15T07:31:32.155Z,21.13
2022-09-15T07:33:59.125Z,21.00
2022-09-15T07:36:25.716Z,20.54
2022-09-15T07:38:52.351Z,20.14
2022-09-15T07:41:21.928Z,19.77
2022-09-15T07:43:50.548Z,19.44
2022-09-15T07:46:18.130Z,19.37
2022-09-15T07:48:45.836Z,19.37
2022-09-15T07:51:13.407Z,19.53
2022-09-15T07:53:40.135Z,19.76
2022-09-15T07:56:07.013Z,19.81
2022-09-15T07:58:34.082Z,19.86
2022-09-15T08:01:11.212Z,19.89
2022-09-15T08:03:42.780Z,19.83
2022-09-15T08:06:10.691Z,19.89
2022-09-15T08:08:41.366Z,19.94
2022-09-15T08:11:09.521Z,19.62
2022-09-15T08:13:36.631Z,19.62
2022-09-15T08:16:12.537Z,19.55
2022-09-15T08:18:39.846Z,19.58
2022-09-15T08:21:07.414Z,19.69
2022-09-15T08:23:34.041Z,19.88
2022-09-15T08:26:00.453Z,20.02
2022-09-15T08:28:27.146Z,20.01
2022-09-15T08:31:01.275Z,20.25
2022-09-15T08:33:28.307Z,20.46
2022-09-15T08:36:00.079Z,20.50
2022-09-15T08:38:26.526Z,20.57
2022-09-15T08:40:59.157Z,20.72
2022-09-15T08:43:29.238Z,20.80
2022-09-15T08:46:00.514Z,20.57
2022-09-15T08:48:35.259Z,20.33
2022-09-15T08:51:06.393Z,20.12
2022-09-15T08:53:37.765Z,19.90
2022-09-15T08:56:14.545Z,20.19
2022-09-15T08:58:41.090Z,20.55
2022-09-15T09:01:32.372Z,20.59
2022-09-15T09:04:20.568Z,20.82
2022-09-15T09:06:59.465Z,20.99
2022-09-15T09:09:49.853Z,21.30
2022-09-15T09:12:41.167Z,21.64
2022-09-15T09:15:22.572Z,22.01
2022-09-15T09:18:05.668Z,22.30
2022-09-15T09:20:37.962Z,22.24
2022-09-15T09:23:11.052Z,21.93
2022-09-15T09:25:38.282Z,21.53
2022-09-15T09:28:07.771Z,21.13
2022-09-15T09:30:36.183Z,21.25
2022-09-15T09:33:15.194Z,21.35
2022-09-15T09:35:48.622Z,21.66
2022-09-15T09:38:20.868Z,21.38
2022-09-15T09:40:48.098Z,21.77
2022-09-15T09:43:15.356Z,22.08
2022-09-15T09:45:41.807Z,21.84
2022-09-15T09:48:20.180Z,21.45
2022-09-15T09:50:47.398Z,21.53
2022-09-15T09:53:20.401Z,21.17
2022-09-15T09:55:47.054Z,21.25
2022-09-15T09:58:19.277Z,21.04
2022-09-15T10:00:46.029Z,21.07
2022-09-15T10:03:23.867Z,21.70
2022-09-15T10:06:06.908Z,21.85
2022-09-15T10:08:36.341Z,21.50
2022-09-15T10:11:06.796Z,20.56
2022-09-15T10:13:49.416Z,20.29
2022-09-15T10:16:19.342Z,19.78
2022-09-15T10:18:54.021Z,19.58
2022-09-15T10:21:25.040Z,19.12
2022-09-15T10:23:51.993Z,18.67
2022-09-15T10:26:34.501Z,18.67
2022-09-15T10:29:12.569Z,18.60
2022-09-15T10:31:40.167Z,18.36
2022-09-15T10:34:30.285Z,18.58
2022-09-15T10:37:36.016Z,18.68
2022-09-15T10:40:35.529Z,18.69
2022-09-15T10:43:41.432Z,18.52
2022-09-15T10:46:20.446Z,18.26
2022-09-15T10:49:31.926Z,18.45
2022-09-15T10:52:22.329Z,18.95
2022-09-15T10:54:57.901Z,19.08
2022-09-15T10:58:00.634Z,19.37
2022-09-15T11:01:00.026Z,20.16
2022-09-15T11:03:46.569Z,20.94
2022-09-15T11:06:24.065Z,21.41
2022-09-15T11:09:11.878Z,21.98
2022-09-15T11:12:01.220Z,23.11
2022-09-15T11:14:52.587Z,24.18
2022-09-15T11:17:57.254Z,24.29
2022-09-15T11:20:33.166Z,24.63
2022-09-15T11:23:17.742Z,25.92
2022-09-15T11:25:48.811Z,25.17
2022-09-15T11:28:21.610Z,24.37
2022-09-15T11:31:14.683Z,23.86
2022-09-15T11:34:01.605Z,23.23
2022-09-15T11:36:52.193Z,22.57
2022-09-15T11:39:30.514Z,21.54
2022-09-15T11:42:22.375Z,20.99
2022-09-15T11:44:49.802Z,21.00
2022-09-15T11:47:44.665Z,21.22
2022-09-15T11:50:12.922Z,21.22
2022-09-15T11:52:57.975Z,21.50
2022-09-15T11:55:33.244Z,21.77
2022-09-15T11:58:19.698Z,21.31
2022-09-15T12:00:55.352Z,20.47
2022-09-15T12:03:29.197Z,20.35
2022-09-15T12:06:06.900Z,20.48
2022-09-15T12:08:42.190Z,21.27
2022-09-15T12:11:17.597Z,22.20
2022-09-15T12:13:45.586Z,23.49
2022-09-15T12:16:12.909Z,23.95
2022-09-15T12:18:48.619Z,23.74
2022-09-15T12:21:34.861Z,22.62
2022-09-15T12:24:30.478Z,22.20
2022-09-15T12:30:40.398Z,23.80
2022-09-15T12:33:43.274Z,24.16
2022-09-15T12:36:37.440Z,24.00
2022-09-15T12:39:25.481Z,22.69
2022-09-15T12:41:53.358Z,22.61
2022-09-15T12:44:44.671Z,22.57
2022-09-15T12:47:38.572Z,22.04
2022-09-15T12:50:22.025Z,21.85
2022-09-15T12:52:58.204Z,21.84
2022-09-15T12:55:27.732Z,21.39
2022-09-15T12:58:00.216Z,21.22
2022-09-15T13:00:28.714Z,20.85
2022-09-15T13:02:55.985Z,21.68
2022-09-15T13:05:46.095Z,22.15
2022-09-15T13:08:18.957Z,21.26
2022-09-15T13:11:02.986Z,20.48
2022-09-15T13:13:45.253Z,20.60
2022-09-15T13:16:21.743Z,19.98
2022-09-15T13:18:54.752Z,20.14
2022-09-15T13:21:23.705Z,20.16
2022-09-15T13:23:53.101Z,21.84
2022-09-15T13:26:24.009Z,24.02
2022-09-15T13:28:55.571Z,26.23
2022-09-15T13:31:42.556Z,27.18
2022-09-15T13:40:33.580Z,21.42
2022-09-15T13:43:50.862Z,21.36
2022-09-15T13:46:37.440Z,21.33
2022-09-15T13:49:28.582Z,21.05
2022-09-15T13:52:17.787Z,21.44
2022-09-15T13:55:20.845Z,21.15
2022-09-15T14:01:05.820Z,21.09
2022-09-15T14:03:41.637Z,20.80
2022-09-15T14:06:20.770Z,20.90
2022-09-15T14:08:51.777Z,20.45
2022-09-15T14:11:25.564Z,19.71
2022-09-15T14:13:53.523Z,19.05
2022-09-15T14:16:27.818Z,21.21
2022-09-15T14:18:57.572Z,24.32
2022-09-15T14:21:26.751Z,24.79
2022-09-15T14:23:55.437Z,24.57
2022-09-15T14:26:25.725Z,23.58
2022-09-15T14:28:56.618Z,23.82
2022-09-15T14:31:33.377Z,24.34
2022-09-15T14:34:01.762Z,24.36
2022-09-15T14:36:31.827Z,22.82
2022-09-15T14:39:18.920Z,24.71
2022-09-15T14:41:47.509Z,25.50
2022-09-15T14:47:28.564Z,26.34
2022-09-15T14:50:21.323Z,26.15
2022-09-15T14:52:51.851Z,24.45
2022-09-15T14:55:25.153Z,23.77
2022-09-15T14:58:11.086Z,24.10
2022-09-15T15:00:44.540Z,24.74
2022-09-15T15:03:18.388Z,23.81
2022-09-15T15:06:02.625Z,22.77
2022-09-15T15:08:40.920Z,21.85
2022-09-15T15:11:10.648Z,21.18
2022-09-15T15:13:40.548Z,20.93
2022-09-15T15:16:19.330Z,20.61
2022-09-15T15:18:46.108Z,20.27
2022-09-15T15:21:34.998Z,19.84
2022-09-15T15:24:09.642Z,19.89
2022-09-15T15:26:38.420Z,19.77
2022-09-15T15:29:08.408Z,19.40
2022-09-15T15:31:40.097Z,19.18
2022-09-15T15:34:27.293Z,18.84
2022-09-15T15:37:03.184Z,18.78
2022-09-15T15:39:29.858Z,19.28
2022-09-15T15:42:06.539Z,19.43
2022-09-15T15:44:32.970Z,19.60
2022-09-15T15:47:02.435Z,19.84
2022-09-15T15:49:32.740Z,19.77
2022-09-15T15:52:00.435Z,19.69
2022-09-15T15:54:27.493Z,19.50
2022-09-15T15:56:54.547Z,19.09
2022-09-15T15:59:21.238Z,19.18
2022-09-15T16:01:51.288Z,19.04
2022-09-15T16:04:17.752Z,18.90
2022-09-15T16:06:44.829Z,19.07
2022-09-15T16:09:14.670Z,19.08
2022-09-15T16:11:42.882Z,19.26
2022-09-15T16:14:13.445Z,19.26
2022-09-15T16:16:40.620Z,19.18
2022-09-15T16:19:08.408Z,18.91
2022-09-15T16:21:38.761Z,18.86
2022-09-15T16:24:06.219Z,18.66
2022-09-15T16:26:35.490Z,18.61
2022-09-15T16:29:02.007Z,18.45
2022-09-15T16:31:28.523Z,18.42
2022-09-15T16:33:54.974Z,18.08
2022-09-15T16:36:21.349Z,18.12
2022-09-15T16:38:47.757Z,18.13
2022-09-15T16:41:19.939Z,17.88
2022-09-15T16:43:47.384Z,17.85
2022-09-15T16:46:15.073Z,17.71
2022-09-15T16:48:43.015Z,17.53
2022-09-15T16:51:28.419Z,17.57
2022-09-15T16:53:57.230Z,17.32
2022-09-15T16:56:23.647Z,17.35
2022-09-15T16:58:54.809Z,17.15
2022-09-15T17:01:25.128Z,17.27
2022-09-15T17:03:51.568Z,17.11
2022-09-15T17:06:18.623Z,17.21
2022-09-15T17:08:45.528Z,17.05
2022-09-15T17:11:16.590Z,16.74
2022-09-15T17:13:44.349Z,16.81
2022-09-15T17:16:12.341Z,16.96
2022-09-15T17:18:38.792Z,16.95
2022-09-15T17:21:05.345Z,17.02
2022-09-15T17:23:36.714Z,17.18
2022-09-15T17:26:06.692Z,17.00
2022-09-15T17:28:34.893Z,17.15
2022-09-15T17:31:04.057Z,17.16
2022-09-15T17:33:31.850Z,16.98
2022-09-15T17:35:59.624Z,16.98
2022-09-15T17:38:26.520Z,16.85
2022-09-15T17:40:55.191Z,16.89
2022-09-15T17:43:24.333Z,16.87
2022-09-15T17:45:51.671Z,16.78
2022-09-15T17:48:18.738Z,16.89
2022-09-15T17:50:46.281Z,16.90
2022-09-15T17:53:14.904Z,16.97
2022-09-15T17:55:41.332Z,17.06
2022-09-15T17:58:08.393Z,16.95
2022-09-15T18:00:37.705Z,16.79
2022-09-15T18:03:16.827Z,16.56
2022-09-15T18:05:43.375Z,16.46
2022-09-15T18:08:09.875Z,16.50
2022-09-15T18:10:36.795Z,16.53
2022-09-15T18:13:05.219Z,16.41
2022-09-15T18:15:34.032Z,16.23
2022-09-15T18:18:04.082Z,16.25
2022-09-15T18:20:33.082Z,16.18
2022-09-15T18:23:00.225Z,16.16
2022-09-15T18:25:32.115Z,15.90
2022-09-15T18:27:59.435Z,15.94
2022-09-15T18:30:28.785Z,15.90
2022-09-15T18:32:56.718Z,16.00
2022-09-15T18:35:23.786Z,15.74
2022-09-15T18:37:57.658Z,15.70
2022-09-15T18:40:25.439Z,14.96
2022-09-15T18:42:52.471Z,14.99
2022-09-15T18:45:19.905Z,15.00
2022-09-15T18:47:48.920Z,14.83
2022-09-15T18:50:16.732Z,14.82
2022-09-15T18:52:43.520Z,14.91
2022-09-15T18:55:15.083Z,14.78
2022-09-15T18:57:42.823Z,15.11
2022-09-15T19:00:13.821Z,15.19
2022-09-15T19:02:40.562Z,15.05
2022-09-15T19:05:08.099Z,15.17
2022-09-15T19:07:34.529Z,15.19
2022-09-15T19:10:01.641Z,15.14
2022-09-15T19:12:28.104Z,14.90
2022-09-15T19:14:54.543Z,15.03
2022-09-15T19:17:21.319Z,15.11
2022-09-15T19:19:47.940Z,15.20
2022-09-15T19:22:14.372Z,15.26
2022-09-15T19:24:40.894Z,14.99
2022-09-15T19:27:08.844Z,14.84
2022-09-15T19:29:37.105Z,14.81
2022-09-15T19:32:05.941Z,14.86
2022-09-15T19:34:32.590Z,14.65
2022-09-15T19:36:59.033Z,14.55
2022-09-15T19:39:25.767Z,14.58
2022-09-15T19:41:52.320Z,14.50
2022-09-15T19:44:18.808Z,14.43
2022-09-15T19:46:47.397Z,14.30
2022-09-15T19:49:13.980Z,14.35
2022-09-15T19:51:40.475Z,14.32
2022-09-15T19:54:07.149Z,14.44
2022-09-15T19:56:34.952Z,14.52
2022-09-15T19:59:01.816Z,14.47
2022-09-15T20:01:29.791Z,14.69
2022-09-15T20:03:56.975Z,14.71
2022-09-15T20:06:32.476Z,14.61
2022-09-15T20:08:59.525Z,14.62
2022-09-15T20:11:27.738Z,14.71
2022-09-15T20:13:54.646Z,14.61
2022-09-15T20:16:23.010Z,14.59
2022-09-15T20:18:50.791Z,14.61
2022-09-15T20:21:32.427Z,14.15
2022-09-15T20:24:00.772Z,14.34
2022-09-15T20:26:27.403Z,14.38
2022-09-15T20:28:54.184Z,14.34
2022-09-15T20:31:23.587Z,14.24
2022-09-15T20:33:51.486Z,14.34
2022-09-15T20:36:28.583Z,14.19
2022-09-15T20:38:56.436Z,14.19
2022-09-15T20:41:25.151Z,14.33
2022-09-15T20:43:52.210Z,14.35
2022-09-15T20:46:21.025Z,14.32
2022-09-15T20:48:47.946Z,14.52
2022-09-15T20:51:17.646Z,14.59
2022-09-15T20:53:46.467Z,14.53
2022-09-15T20:56:14.787Z,14.45
2022-09-15T20:58:41.830Z,14.53
2022-09-15T21:01:12.595Z,14.45
2022-09-15T21:03:41.442Z,14.48
2022-09-15T21:06:11.004Z,14.08
2022-09-15T21:08:37.765Z,14.25
2022-09-15T21:11:05.885Z,14.23
2022-09-15T21:13:37.064Z,14.11
2022-09-15T21:16:07.618Z,14.13
2022-09-15T21:18:36.793Z,14.09
2022-09-15T21:21:07.676Z,14.11
2022-09-15T21:23:36.895Z,13.95
2022-09-15T21:26:06.447Z,13.88
2022-09-15T21:28:33.884Z,13.89
2022-09-15T21:31:09.422Z,13.79
2022-09-15T21:33:36.867Z,13.91
2022-09-15T21:36:04.921Z,13.90
2022-09-15T21:38:31.495Z,14.08
2022-09-15T21:40:58.159Z,14.10
2022-09-15T21:43:29.012Z,13.97
2022-09-15T21:45:56.694Z,13.67
2022-09-15T21:48:23.352Z,13.69
2022-09-15T21:50:51.162Z,13.99
2022-09-15T21:53:18.061Z,14.04
2022-09-15T21:55:44.485Z,14.10
2022-09-15T21:58:10.896Z,14.11
2022-09-15T22:00:40.018Z,14.31
2022-09-15T22:03:07.083Z,14.18
2022-09-15T22:05:33.594Z,14.26
2022-09-15T22:08:04.694Z,14.20
2022-09-15T22:10:31.659Z,14.41
2022-09-15T22:12:58.081Z,14.25
2022-09-15T22:15:24.509Z,14.17
2022-09-15T22:17:50.895Z,14.19
2022-09-15T22:20:17.484Z,14.24
2022-09-15T22:22:44.284Z,14.31
2022-09-15T22:25:11.292Z,14.27
2022-09-15T22:27:37.748Z,14.14
2022-09-15T22:30:04.558Z,13.81
2022-09-15T22:32:30.995Z,13.90
2022-09-15T22:34:57.377Z,14.00
2022-09-15T22:37:27.419Z,13.92
2022-09-15T22:40:01.346Z,13.86
2022-09-15T22:42:28.079Z,13.79
2022-09-15T22:44:54.490Z,13.71
2022-09-15T22:47:20.929Z,13.65
2022-09-15T22:49:47.422Z,13.75
2022-09-15T22:52:13.788Z,13.64
2022-09-15T22:54:40.186Z,13.67
2022-09-15T22:57:07.136Z,13.74
2022-09-15T22:59:33.636Z,13.80
2022-09-15T23:02:00.115Z,13.78
2022-09-15T23:04:26.685Z,13.64
2022-09-15T23:06:53.097Z,13.90
2022-09-15T23:09:19.498Z,13.60
2022-09-15T23:11:45.966Z,13.64
2022-09-15T23:14:17.974Z,13.58
2022-09-15T23:16:44.972Z,13.59
2022-09-15T23:19:13.292Z,13.39
2022-09-15T23:21:40.153Z,13.55
2022-09-15T23:24:06.836Z,13.72
2022-09-15T23:26:33.303Z,13.50
2022-09-15T23:28:59.721Z,13.31
2022-09-15T23:31:26.269Z,13.46
2022-09-15T23:33:52.745Z,13.46
2022-09-15T23:36:19.574Z,13.42
2022-09-15T23:38:47.204Z,13.51
2022-09-15T23:41:14.968Z,13.50
2022-09-15T23:43:41.602Z,13.35
2022-09-15T23:46:08.334Z,13.27
2022-09-15T23:48:35.008Z,13.21
2022-09-15T23:51:02.146Z,13.31
2022-09-15T23:53:29.250Z,13.43
2022-09-15T23:55:55.812Z,13.37
2022-09-15T23:58:22.246Z,13.40
